Time,TemperatureF,DewpointF,PressureIn,WindDirection,WindDirectionDegrees,WindSpeedMPH,WindSpeedGustMPH,Humidity,HourlyPrecipIn,Conditions,Clouds,dailyrainin,SoftwareType,DateUTC
2013-03-18 00:00:00,40.5,36.6,30.16,NE,48,0.0,6.0,86,0.00,,,0.00,WUHU216DAVISVP2,2013-03-18 04:00:00,
2013-03-18 00:05:00,40.5,36.6,30.16,NE,49,0.0,6.0,86,0.00,,,0.00,WUHU216DAVISVP2,2013-03-18 04:05:00,
2013-03-18 00:10:00,40.3,36.7,30.16,East,82,0.0,6.0,87,0.00,,,0.00,WUHU216DAVISVP2,2013-03-18 04:10:00,
2013-03-18 00:15:00,40.5,36.9,30.17,East,80,0.0,6.0,87,0.00,,,0.00,WUHU216DAVISVP2,2013-03-18 04:15:00,
2013-03-18 00:20:00,40.5,36.9,30.17,East,80,0.0,2.0,87,0.01,,,0.01,WUHU216DAVISVP2,2013-03-18 04:20:00,
2013-03-18 00:25:00,40.5,36.9,30.17,NE,55,0.0,6.0,87,0.01,,,0.01,WUHU216DAVISVP2,2013-03-18 04:25:00,
2013-03-18 00:30:00,40.5,36.9,30.16,ENE,71,2.0,6.0,87,0.01,,,0.01,WUHU216DAVISVP2,2013-03-18 04:30:00,
2013-03-18 00:35:00,40.3,36.7,30.16,ESE,102,2.0,4.0,87,0.01,,,0.01,WUHU216DAVISVP2,2013-03-18 04:35:00,
2013-03-18 00:40:00,40.3,37.0,30.16,North,0,7.0,10.0,88,0.01,,,0.01,WUHU216DAVISVP2,2013-03-18 04:40:00,
2013-03-18 00:45:00,40.3,37.0,30.15,East,83,4.0,10.0,88,0.01,,,0.01,WUHU216DAVISVP2,2013-03-18 04:45:00,
2013-03-18 00:50:00,40.3,37.0,30.15,ENE,71,0.0,8.0,88,0.01,,,0.01,WUHU216DAVISVP2,2013-03-18 04:50:00,
2013-03-18 00:55:00,40.3,37.0,30.15,East,96,4.0,8.0,88,0.01,,,0.01,WUHU216DAVISVP2,2013-03-18 04:55:00,
2013-03-18 01:00:00,40.5,37.2,30.15,East,80,0.0,6.0,88,0.01,,,0.01,WUHU216DAVISVP2,2013-03-18 05:00:00,
2013-03-18 01:05:00,40.5,37.2,30.15,East,79,0.0,6.0,88,0.01,,,0.00,WUHU216DAVISVP2,2013-03-18 05:05:00,
2013-03-18 01:10:00,40.6,37.3,30.15,East,79,0.0,4.0,88,0.01,,,0.00,WUHU216DAVISVP2,2013-03-18 05:10:00,
2013-03-18 01:15:00,40.6,37.3,30.15,East,96,1.0,7.0,88,0.01,,,0.00,WUHU216DAVISVP2,2013-03-18 05:15:00,
2013-03-18 01:20:00,40.8,37.5,30.15,ENE,66,10.0,10.0,88,0.00,,,0.00,WUHU216DAVISVP2,2013-03-18 05:20:00,
2013-03-18 01:25:00,40.8,37.5,30.15,East,89,6.0,10.0,88,0.00,,,0.00,WUHU216DAVISVP2,2013-03-18 05:25:00,
2013-03-18 01:30:00,40.8,37.5,30.15,ENE,66,1.0,8.0,88,0.00,,,0.00,WUHU216DAVISVP2,2013-03-18 05:30:00,
2013-03-18 01:35:00,40.8,37.5,30.15,ENE,69,4.0,6.0,88,0.00,,,0.00,WUHU216DAVISVP2,2013-03-18 05:35:00,
2013-03-18 01:40:00,40.8,37.8,30.15,East,82,1.0,9.0,89,0.00,,,0.00,WUHU216DAVISVP2,2013-03-18 05:40:00,
2013-03-18 01:45:00,40.8,37.8,30.15,ENE,76,4.0,9.0,89,0.00,,,0.00,WUHU216DAVISVP2,2013-03-18 05:45:00,
2013-03-18 01:50:00,40.8,37.8,30.15,ENE,66,1.0,7.0,89,0.00,,,0.00,WUHU216DAVISVP2,2013-03-18 05:50:00,
2013-03-18 01:55:00,41.1,38.1,30.15,NNE,14,0.0,7.0,89,0.00,,,0.00,WUHU216DAVISVP2,2013-03-18 05:55:00,
2013-03-18 02:00:00,40.9,37.9,30.15,ENE,66,4.0,9.0,89,0.00,,,0.00,WUHU216DAVISVP2,2013-03-18 06:00:00,
2013-03-18 02:05:00,40.9,37.9,30.15,East,82,6.0,9.0,89,0.00,,,0.00,WUHU216DAVISVP2,2013-03-18 06:05:00,
2013-03-18 02:10:00,40.9,37.9,30.15,ENE,69,1.0,6.0,89,0.00,,,0.00,WUHU216DAVISVP2,2013-03-18 06:10:00,
2013-03-18 02:15:00,40.9,37.9,30.15,East,82,4.0,10.0,89,0.00,,,0.00,WUHU216DAVISVP2,2013-03-18 06:15:00,
2013-03-18 02:20:00,40.9,37.9,30.15,East,92,1.0,10.0,89,0.00,,,0.00,WUHU216DAVISVP2,2013-03-18 06:20:00,
2013-03-18 02:25:00,40.9,37.9,30.15,ENE,73,6.0,6.0,89,0.00,,,0.00,WUHU216DAVISVP2,2013-03-18 06:25:00,
2013-03-18 02:30:00,41.1,38.1,30.14,ENE,75,1.0,6.0,89,0.00,,,0.00,WUHU216DAVISVP2,2013-03-18 06:30:00,
2013-03-18 02:35:00,41.1,38.1,30.14,ENE,73,0.0,8.0,89,0.00,,,0.00,WUHU216DAVISVP2,2013-03-18 06:35:00,
2013-03-18 02:40:00,40.9,37.9,30.14,East,92,0.0,8.0,89,0.00,,,0.00,WUHU216DAVISVP2,2013-03-18 06:40:00,
2013-03-18 02:45:00,41.1,38.1,30.15,East,80,4.0,7.0,89,0.00,,,0.00,WUHU216DAVISVP2,2013-03-18 06:45:00,
2013-03-18 02:50:00,41.1,38.1,30.15,ENE,73,1.0,7.0,89,0.00,,,0.00,WUHU216DAVISVP2,2013-03-18 06:50:00,
2013-03-18 02:55:00,40.9,37.9,30.15,ENE,66,0.0,7.0,89,0.00,,,0.00,WUHU216DAVISVP2,2013-03-18 06:55:00,
2013-03-18 03:00:00,41.1,38.1,30.15,East,85,0.0,6.0,89,0.00,,,0.00,WUHU216DAVISVP2,2013-03-18 07:00:00,
2013-03-18 03:05:00,41.1,38.1,30.15,East,100,0.0,4.0,89,0.00,,,0.00,WUHU216DAVISVP2,2013-03-18 07:05:00,
2013-03-18 03:10:00,41.1,38.1,30.15,ENE,69,1.0,8.0,89,0.00,,,0.00,WUHU216DAVISVP2,2013-03-18 07:10:00,
2013-03-18 03:15:00,41.1,38.3,30.14,ENE,61,0.0,8.0,90,0.00,,,0.00,WUHU216DAVISVP2,2013-03-18 07:15:00,
2013-03-18 03:20:00,41.1,38.1,30.14,East,88,4.0,8.0,89,0.00,,,0.00,WUHU216DAVISVP2,2013-03-18 07:20:00,
2013-03-18 03:25:00,40.9,38.2,30.14,East,90,0.0,8.0,90,0.00,,,0.00,WUHU216DAVISVP2,2013-03-18 07:25:00,
2013-03-18 03:30:00,40.9,38.2,30.14,ENE,78,0.0,4.0,90,0.00,,,0.00,WUHU216DAVISVP2,2013-03-18 07:30:00,
2013-03-18 03:35:00,40.8,38.1,30.14,ENE,64,1.0,7.0,90,0.00,,,0.00,WUHU216DAVISVP2,2013-03-18 07:35:00,
2013-03-18 03:40:00,40.9,38.2,30.14,ENE,64,0.0,7.0,90,0.01,,,0.01,WUHU216DAVISVP2,2013-03-18 07:40:00,
2013-03-18 03:45:00,40.8,38.1,30.14,ESE,110,8.0,8.0,90,0.01,,,0.01,WUHU216DAVISVP2,2013-03-18 07:45:00,
2013-03-18 03:50:00,40.8,38.1,30.14,NE,54,1.0,8.0,90,0.01,,,0.01,WUHU216DAVISVP2,2013-03-18 07:50:00,
2013-03-18 03:55:00,40.6,37.9,30.14,ENE,59,7.0,8.0,90,0.01,,,0.01,WUHU216DAVISVP2,2013-03-18 07:55:00,
2013-03-18 04:00:00,40.6,37.9,30.14,East,80,1.0,8.0,90,0.01,,,0.01,WUHU216DAVISVP2,2013-03-18 08:00:00,
2013-03-18 04:05:00,40.6,37.9,30.14,East,80,0.0,7.0,90,0.01,,,0.01,WUHU216DAVISVP2,2013-03-18 08:05:00,
2013-03-18 04:10:00,40.6,37.9,30.14,East,79,1.0,7.0,90,0.01,,,0.01,WUHU216DAVISVP2,2013-03-18 08:10:00,
2013-03-18 04:15:00,40.8,38.1,30.13,ESE,102,1.0,4.0,90,0.01,,,0.01,WUHU216DAVISVP2,2013-03-18 08:15:00,
2013-03-18 04:20:00,40.8,38.1,30.13,East,99,1.0,2.0,90,0.01,,,0.01,WUHU216DAVISVP2,2013-03-18 08:20:00,
2013-03-18 04:25:00,40.8,38.1,30.13,NE,55,4.0,6.0,90,0.01,,,0.01,WUHU216DAVISVP2,2013-03-18 08:25:00,
2013-03-18 04:30:00,40.6,37.9,30.13,East,96,0.0,8.0,90,0.01,,,0.01,WUHU216DAVISVP2,2013-03-18 08:30:00,
2013-03-18 04:35:00,40.5,37.8,30.13,East,80,7.0,8.0,90,0.01,,,0.01,WUHU216DAVISVP2,2013-03-18 08:35:00,
2013-03-18 04:40:00,40.5,37.8,30.13,ENE,76,0.0,7.0,90,0.00,,,0.01,WUHU216DAVISVP2,2013-03-18 08:40:00,
2013-03-18 04:45:00,40.5,37.8,30.13,ENE,78,0.0,7.0,90,0.01,,,0.02,WUHU216DAVISVP2,2013-03-18 08:45:00,
2013-03-18 04:50:00,40.5,37.8,30.13,ENE,73,6.0,8.0,90,0.01,,,0.02,WUHU216DAVISVP2,2013-03-18 08:50:00,
2013-03-18 04:55:00,40.5,37.8,30.13,East,93,1.0,8.0,90,0.01,,,0.02,WUHU216DAVISVP2,2013-03-18 08:55:00,
2013-03-18 05:00:00,40.2,37.5,30.14,East,90,4.0,7.0,90,0.01,,,0.02,WUHU216DAVISVP2,2013-03-18 09:00:00,
2013-03-18 05:05:00,40.2,37.5,30.14,ESE,116,2.0,7.0,90,0.01,,,0.02,WUHU216DAVISVP2,2013-03-18 09:05:00,
2013-03-18 05:10:00,40.3,37.6,30.14,ENE,62,0.0,6.0,90,0.01,,,0.02,WUHU216DAVISVP2,2013-03-18 09:10:00,
2013-03-18 05:15:00,40.2,37.5,30.14,ENE,65,2.0,6.0,90,0.01,,,0.02,WUHU216DAVISVP2,2013-03-18 09:15:00,
2013-03-18 05:20:00,40.2,37.5,30.14,ENE,65,0.0,4.0,90,0.01,,,0.02,WUHU216DAVISVP2,2013-03-18 09:20:00,
2013-03-18 05:25:00,40.2,37.5,30.14,East,90,4.0,4.0,90,0.01,,,0.02,WUHU216DAVISVP2,2013-03-18 09:25:00,
2013-03-18 05:30:00,40.5,37.8,30.15,East,90,0.0,4.0,90,0.01,,,0.02,WUHU216DAVISVP2,2013-03-18 09:30:00,
2013-03-18 05:35:00,40.3,37.6,30.15,East,90,1.0,2.0,90,0.01,,,0.02,WUHU216DAVISVP2,2013-03-18 09:35:00,
2013-03-18 05:40:00,40.3,37.6,30.15,East,90,0.0,2.0,90,0.01,,,0.02,WUHU216DAVISVP2,2013-03-18 09:40:00,
2013-03-18 05:45:00,40.3,37.6,30.15,East,89,2.0,2.0,90,0.00,,,0.02,WUHU216DAVISVP2,2013-03-18 09:45:00,
2013-03-18 05:50:00,40.5,37.8,30.15,NE,35,0.0,6.0,90,0.00,,,0.02,WUHU216DAVISVP2,2013-03-18 09:50:00,
2013-03-18 05:55:00,40.3,37.6,30.15,ENE,78,0.0,6.0,90,0.00,,,0.02,WUHU216DAVISVP2,2013-03-18 09:55:00,
2013-03-18 06:00:00,40.5,37.8,30.16,ENE,78,0.0,4.0,90,0.00,,,0.02,WUHU216DAVISVP2,2013-03-18 10:00:00,
2013-03-18 06:05:00,40.6,37.9,30.16,ENE,78,1.0,2.0,90,0.00,,,0.02,WUHU216DAVISVP2,2013-03-18 10:05:00,
2013-03-18 06:10:00,40.5,37.8,30.16,North,359,0.0,2.0,90,0.00,,,0.02,WUHU216DAVISVP2,2013-03-18 10:10:00,
2013-03-18 06:15:00,40.3,37.6,30.16,North,359,0.0,2.0,90,0.00,,,0.02,WUHU216DAVISVP2,2013-03-18 10:15:00,
2013-03-18 06:20:00,40.5,37.8,30.16,North,359,0.0,1.0,90,0.00,,,0.02,WUHU216DAVISVP2,2013-03-18 10:20:00,
2013-03-18 06:25:00,40.3,37.6,30.16,North,359,0.0,2.0,90,0.00,,,0.02,WUHU216DAVISVP2,2013-03-18 10:25:00,
2013-03-18 06:30:00,40.3,37.6,30.16,North,0,0.0,2.0,90,0.00,,,0.02,WUHU216DAVISVP2,2013-03-18 10:30:00,
2013-03-18 06:35:00,40.3,37.6,30.16,North,0,0.0,1.0,90,0.00,,,0.02,WUHU216DAVISVP2,2013-03-18 10:35:00,
2013-03-18 06:40:00,40.5,37.8,30.16,ENE,62,2.0,4.0,90,0.00,,,0.02,WUHU216DAVISVP2,2013-03-18 10:40:00,
2013-03-18 06:45:00,40.6,37.9,30.16,ENE,66,0.0,4.0,90,0.01,,,0.03,WUHU216DAVISVP2,2013-03-18 10:45:00,
2013-03-18 06:50:00,40.3,37.6,30.16,ENE,61,0.0,4.0,90,0.01,,,0.03,WUHU216DAVISVP2,2013-03-18 10:50:00,
2013-03-18 06:55:00,40.5,37.8,30.16,ENE,68,2.0,6.0,90,0.01,,,0.03,WUHU216DAVISVP2,2013-03-18 10:55:00,
2013-03-18 07:00:00,40.3,37.8,30.17,East,80,1.0,6.0,91,0.01,,,0.03,WUHU216DAVISVP2,2013-03-18 11:00:00,
2013-03-18 07:05:00,40.2,37.7,30.17,East,82,0.0,6.0,91,0.01,,,0.03,WUHU216DAVISVP2,2013-03-18 11:05:00,
2013-03-18 07:10:00,40.3,37.8,30.17,East,79,0.0,6.0,91,0.01,,,0.03,WUHU216DAVISVP2,2013-03-18 11:10:00,
2013-03-18 07:15:00,40.2,37.5,30.17,North,1,1.0,7.0,90,0.01,,,0.03,WUHU216DAVISVP2,2013-03-18 11:15:00,
2013-03-18 07:20:00,40.1,37.4,30.17,NE,38,0.0,7.0,90,0.01,,,0.03,WUHU216DAVISVP2,2013-03-18 11:20:00,
2013-03-18 07:25:00,40.2,37.7,30.17,NE,51,2.0,4.0,91,0.01,,,0.03,WUHU216DAVISVP2,2013-03-18 11:25:00,
2013-03-18 07:30:00,40.1,37.6,30.18,ENE,76,0.0,6.0,91,0.01,,,0.03,WUHU216DAVISVP2,2013-03-18 11:30:00,
2013-03-18 07:35:00,40.2,37.7,30.18,East,93,6.0,6.0,91,0.01,,,0.03,WUHU216DAVISVP2,2013-03-18 11:35:00,
2013-03-18 07:40:00,40.2,37.7,30.18,NE,42,1.0,6.0,91,0.01,,,0.03,WUHU216DAVISVP2,2013-03-18 11:40:00,
2013-03-18 07:45:00,40.1,37.6,30.18,ENE,75,2.0,6.0,91,0.00,,,0.03,WUHU216DAVISVP2,2013-03-18 11:45:00,
2013-03-18 07:50:00,40.1,37.6,30.18,ENE,59,1.0,6.0,91,0.00,,,0.03,WUHU216DAVISVP2,2013-03-18 11:50:00,
2013-03-18 07:55:00,40.2,37.7,30.18,NE,48,2.0,6.0,91,0.00,,,0.03,WUHU216DAVISVP2,2013-03-18 11:55:00,
2013-03-18 08:00:00,40.1,37.6,30.17,ENE,68,2.0,6.0,91,0.00,,,0.03,WUHU216DAVISVP2,2013-03-18 12:00:00,
2013-03-18 08:05:00,40.1,37.6,30.17,ENE,78,0.0,4.0,91,0.00,,,0.03,WUHU216DAVISVP2,2013-03-18 12:05:00,
2013-03-18 08:10:00,40.2,37.7,30.17,NNE,14,0.0,7.0,91,0.00,,,0.03,WUHU216DAVISVP2,2013-03-18 12:10:00,
2013-03-18 08:15:00,40.1,37.6,30.17,East,93,0.0,7.0,91,0.00,,,0.03,WUHU216DAVISVP2,2013-03-18 12:15:00,
2013-03-18 08:20:00,40.1,37.6,30.17,East,83,0.0,7.0,91,0.00,,,0.03,WUHU216DAVISVP2,2013-03-18 12:20:00,
2013-03-18 08:25:00,40.2,37.7,30.17,ENE,72,4.0,8.0,91,0.00,,,0.03,WUHU216DAVISVP2,2013-03-18 12:25:00,
2013-03-18 08:30:00,40.1,37.6,30.18,ENE,58,0.0,8.0,91,0.00,,,0.03,WUHU216DAVISVP2,2013-03-18 12:30:00,
2013-03-18 08:35:00,40.1,37.6,30.18,East,97,0.0,6.0,91,0.00,,,0.03,WUHU216DAVISVP2,2013-03-18 12:35:00,
2013-03-18 08:40:00,40.2,37.7,30.18,ENE,72,1.0,6.0,91,0.00,,,0.03,WUHU216DAVISVP2,2013-03-18 12:40:00,
2013-03-18 08:45:00,40.1,37.6,30.17,ENE,68,1.0,8.0,91,0.00,,,0.03,WUHU216DAVISVP2,2013-03-18 12:45:00,
2013-03-18 08:50:00,40.1,37.6,30.17,ESE,116,7.0,8.0,91,0.00,,,0.03,WUHU216DAVISVP2,2013-03-18 12:50:00,
2013-03-18 08:55:00,40.1,37.6,30.17,NE,55,1.0,7.0,91,0.00,,,0.03,WUHU216DAVISVP2,2013-03-18 12:55:00,
2013-03-18 09:00:00,40.2,37.7,30.17,NE,52,2.0,7.0,91,0.00,,,0.03,WUHU216DAVISVP2,2013-03-18 13:00:00,
2013-03-18 09:05:00,40.1,37.6,30.17,East,100,0.0,6.0,91,0.00,,,0.03,WUHU216DAVISVP2,2013-03-18 13:05:00,
2013-03-18 09:10:00,40.2,37.7,30.17,East,100,2.0,6.0,91,0.00,,,0.03,WUHU216DAVISVP2,2013-03-18 13:10:00,
2013-03-18 09:15:00,40.2,37.7,30.18,ENE,72,2.0,6.0,91,0.00,,,0.03,WUHU216DAVISVP2,2013-03-18 13:15:00,
2013-03-18 09:20:00,40.2,37.7,30.18,East,96,0.0,6.0,91,0.00,,,0.03,WUHU216DAVISVP2,2013-03-18 13:20:00,
2013-03-18 09:25:00,40.2,37.7,30.18,East,90,6.0,7.0,91,0.00,,,0.03,WUHU216DAVISVP2,2013-03-18 13:25:00,
2013-03-18 09:30:00,40.2,37.7,30.18,East,83,0.0,7.0,91,0.00,,,0.03,WUHU216DAVISVP2,2013-03-18 13:30:00,
2013-03-18 09:35:00,40.2,37.7,30.18,East,99,6.0,8.0,91,0.00,,,0.03,WUHU216DAVISVP2,2013-03-18 13:35:00,
2013-03-18 09:40:00,40.3,37.8,30.18,East,86,2.0,8.0,91,0.00,,,0.03,WUHU216DAVISVP2,2013-03-18 13:40:00,
2013-03-18 09:45:00,40.2,37.7,30.17,NE,35,1.0,7.0,91,0.00,,,0.03,WUHU216DAVISVP2,2013-03-18 13:45:00,
2013-03-18 09:50:00,40.3,37.8,30.17,NE,47,0.0,7.0,91,0.00,,,0.03,WUHU216DAVISVP2,2013-03-18 13:50:00,
2013-03-18 09:55:00,40.3,37.8,30.17,NE,47,0.0,2.0,91,0.00,,,0.03,WUHU216DAVISVP2,2013-03-18 13:55:00,
2013-03-18 10:00:00,40.3,37.8,30.17,ESE,107,2.0,7.0,91,0.00,,,0.03,WUHU216DAVISVP2,2013-03-18 14:00:00,
2013-03-18 10:05:00,40.6,38.1,30.17,East,93,2.0,7.0,91,0.00,,,0.03,WUHU216DAVISVP2,2013-03-18 14:05:00,
2013-03-18 10:10:00,40.5,38.0,30.17,East,83,7.0,8.0,91,0.00,,,0.03,WUHU216DAVISVP2,2013-03-18 14:10:00,
2013-03-18 10:15:00,40.3,37.8,30.15,East,86,2.0,8.0,91,0.00,,,0.03,WUHU216DAVISVP2,2013-03-18 14:15:00,
2013-03-18 10:20:00,40.5,38.0,30.15,ENE,76,0.0,8.0,91,0.00,,,0.03,WUHU216DAVISVP2,2013-03-18 14:20:00,
2013-03-18 10:25:00,40.5,38.0,30.15,ENE,66,6.0,7.0,91,0.00,,,0.03,WUHU216DAVISVP2,2013-03-18 14:25:00,
2013-03-18 10:30:00,40.5,38.0,30.14,East,88,9.0,10.0,91,0.00,,,0.03,WUHU216DAVISVP2,2013-03-18 14:30:00,
2013-03-18 10:35:00,40.8,38.3,30.14,East,89,4.0,10.0,91,0.00,,,0.03,WUHU216DAVISVP2,2013-03-18 14:35:00,
2013-03-18 10:40:00,40.6,38.1,30.14,ENE,61,4.0,8.0,91,0.00,,,0.03,WUHU216DAVISVP2,2013-03-18 14:40:00,
2013-03-18 10:45:00,40.6,38.1,30.13,East,90,4.0,8.0,91,0.00,,,0.03,WUHU216DAVISVP2,2013-03-18 14:45:00,
2013-03-18 10:50:00,40.9,38.4,30.13,ENE,73,1.0,8.0,91,0.00,,,0.03,WUHU216DAVISVP2,2013-03-18 14:50:00,
2013-03-18 10:55:00,40.8,38.6,30.13,ENE,66,1.0,8.0,92,0.00,,,0.03,WUHU216DAVISVP2,2013-03-18 14:55:00,
2013-03-18 11:00:00,41.1,38.9,30.13,ENE,64,1.0,7.0,92,0.00,,,0.03,WUHU216DAVISVP2,2013-03-18 15:00:00,
2013-03-18 11:05:00,40.9,38.7,30.13,East,89,0.0,7.0,92,0.00,,,0.03,WUHU216DAVISVP2,2013-03-18 15:05:00,
2013-03-18 11:10:00,41.1,38.6,30.13,ESE,112,2.0,6.0,91,0.00,,,0.03,WUHU216DAVISVP2,2013-03-18 15:10:00,
2013-03-18 11:15:00,40.9,38.4,30.12,East,90,4.0,6.0,91,0.00,,,0.03,WUHU216DAVISVP2,2013-03-18 15:15:00,
2013-03-18 11:20:00,40.9,38.7,30.12,ENE,71,1.0,8.0,92,0.00,,,0.03,WUHU216DAVISVP2,2013-03-18 15:20:00,
2013-03-18 11:25:00,41.1,38.9,30.12,East,96,2.0,8.0,92,0.00,,,0.03,WUHU216DAVISVP2,2013-03-18 15:25:00,
2013-03-18 11:30:00,41.2,39.0,30.12,NE,54,1.0,7.0,92,0.00,,,0.03,WUHU216DAVISVP2,2013-03-18 15:30:00,
2013-03-18 11:35:00,41.1,38.6,30.12,North,357,0.0,6.0,91,0.00,,,0.03,WUHU216DAVISVP2,2013-03-18 15:35:00,
2013-03-18 11:40:00,41.2,39.0,30.12,East,89,0.0,6.0,92,0.00,,,0.03,WUHU216DAVISVP2,2013-03-18 15:40:00,
2013-03-18 11:45:00,41.5,39.3,30.12,East,89,1.0,6.0,92,0.00,,,0.03,WUHU216DAVISVP2,2013-03-18 15:45:00,
2013-03-18 11:50:00,41.6,39.4,30.12,East,80,1.0,6.0,92,0.00,,,0.03,WUHU216DAVISVP2,2013-03-18 15:50:00,
2013-03-18 11:55:00,41.6,39.4,30.12,East,80,0.0,2.0,92,0.00,,,0.03,WUHU216DAVISVP2,2013-03-18 15:55:00,
2013-03-18 12:00:00,41.8,39.6,30.11,ENE,66,0.0,4.0,92,0.00,,,0.03,WUHU216DAVISVP2,2013-03-18 16:00:00,
2013-03-18 12:05:00,41.8,39.3,30.11,ENE,66,0.0,4.0,91,0.00,,,0.03,WUHU216DAVISVP2,2013-03-18 16:05:00,
2013-03-18 12:10:00,41.6,39.1,30.11,North,353,0.0,2.0,91,0.00,,,0.03,WUHU216DAVISVP2,2013-03-18 16:10:00,
2013-03-18 12:15:00,41.6,39.1,30.11,East,100,0.0,6.0,91,0.00,,,0.03,WUHU216DAVISVP2,2013-03-18 16:15:00,
2013-03-18 12:20:00,41.8,39.6,30.11,East,95,0.0,6.0,92,0.00,,,0.03,WUHU216DAVISVP2,2013-03-18 16:20:00,
2013-03-18 12:25:00,41.8,39.6,30.11,East,95,1.0,2.0,92,0.00,,,0.03,WUHU216DAVISVP2,2013-03-18 16:25:00,
2013-03-18 12:30:00,42.1,39.9,30.11,East,93,0.0,2.0,92,0.00,,,0.03,WUHU216DAVISVP2,2013-03-18 16:30:00,
2013-03-18 12:35:00,42.1,39.9,30.11,East,93,0.0,2.0,92,0.00,,,0.03,WUHU216DAVISVP2,2013-03-18 16:35:00,
2013-03-18 12:40:00,42.1,39.9,30.11,East,88,1.0,6.0,92,0.00,,,0.03,WUHU216DAVISVP2,2013-03-18 16:40:00,
2013-03-18 12:45:00,42.1,39.9,30.10,East,88,1.0,6.0,92,0.00,,,0.03,WUHU216DAVISVP2,2013-03-18 16:45:00,
2013-03-18 12:50:00,42.1,39.9,30.10,East,88,0.0,2.0,92,0.00,,,0.03,WUHU216DAVISVP2,2013-03-18 16:50:00,
2013-03-18 12:55:00,42.1,39.9,30.10,East,88,0.0,2.0,92,0.00,,,0.03,WUHU216DAVISVP2,2013-03-18 16:55:00,
2013-03-18 13:00:00,42.2,40.0,30.09,East,86,0.0,6.0,92,0.00,,,0.03,WUHU216DAVISVP2,2013-03-18 17:00:00,
2013-03-18 13:05:00,42.2,40.0,30.09,SE,124,0.0,6.0,92,0.00,,,0.03,WUHU216DAVISVP2,2013-03-18 17:05:00,
2013-03-18 13:10:00,42.2,40.0,30.09,SE,124,1.0,2.0,92,0.00,,,0.03,WUHU216DAVISVP2,2013-03-18 17:10:00,
2013-03-18 13:15:00,42.6,40.4,30.09,East,82,4.0,6.0,92,0.00,,,0.03,WUHU216DAVISVP2,2013-03-18 17:15:00,
2013-03-18 13:20:00,42.6,40.4,30.09,ENE,76,2.0,6.0,92,0.00,,,0.03,WUHU216DAVISVP2,2013-03-18 17:20:00,
2013-03-18 13:25:00,42.6,40.4,30.09,ENE,76,1.0,4.0,92,0.00,,,0.03,WUHU216DAVISVP2,2013-03-18 17:25:00,
2013-03-18 13:30:00,42.6,40.4,30.08,ENE,76,1.0,4.0,92,0.00,,,0.03,WUHU216DAVISVP2,2013-03-18 17:30:00,
2013-03-18 13:35:00,42.6,40.4,30.08,ENE,76,1.0,1.0,92,0.00,,,0.03,WUHU216DAVISVP2,2013-03-18 17:35:00,
2013-03-18 13:40:00,42.9,40.7,30.08,ENE,76,0.0,1.0,92,0.00,,,0.03,WUHU216DAVISVP2,2013-03-18 17:40:00,
2013-03-18 13:45:00,42.9,40.7,30.08,NE,52,0.0,4.0,92,0.00,,,0.03,WUHU216DAVISVP2,2013-03-18 17:45:00,
2013-03-18 13:50:00,42.9,40.7,30.08,NE,55,1.0,4.0,92,0.00,,,0.03,WUHU216DAVISVP2,2013-03-18 17:50:00,
2013-03-18 13:55:00,42.9,40.7,30.08,NE,55,0.0,1.0,92,0.00,,,0.03,WUHU216DAVISVP2,2013-03-18 17:55:00,
2013-03-18 14:00:00,43.1,40.9,30.08,NE,55,0.0,1.0,92,0.00,,,0.03,WUHU216DAVISVP2,2013-03-18 18:00:00,
2013-03-18 14:05:00,43.1,40.9,30.08,NE,55,0.0,1.0,92,0.00,,,0.03,WUHU216DAVISVP2,2013-03-18 18:05:00,
2013-03-18 14:10:00,43.1,40.9,30.08,NE,55,0.0,1.0,92,0.00,,,0.03,WUHU216DAVISVP2,2013-03-18 18:10:00,
2013-03-18 14:15:00,43.1,40.9,30.06,NE,55,0.0,1.0,92,0.00,,,0.03,WUHU216DAVISVP2,2013-03-18 18:15:00,
2013-03-18 14:20:00,43.1,40.9,30.06,NE,55,0.0,1.0,92,0.00,,,0.03,WUHU216DAVISVP2,2013-03-18 18:20:00,
2013-03-18 14:25:00,43.1,40.9,30.06,NE,55,0.0,0.0,92,0.00,,,0.03,WUHU216DAVISVP2,2013-03-18 18:25:00,
2013-03-18 14:30:00,43.1,40.9,30.04,East,85,0.0,1.0,92,0.00,,,0.03,WUHU216DAVISVP2,2013-03-18 18:30:00,
2013-03-18 14:35:00,43.6,41.4,30.04,ENE,75,0.0,4.0,92,0.00,,,0.03,WUHU216DAVISVP2,2013-03-18 18:35:00,
2013-03-18 14:40:00,43.6,41.4,30.04,ENE,75,0.0,4.0,92,0.00,,,0.03,WUHU216DAVISVP2,2013-03-18 18:40:00,
2013-03-18 14:45:00,43.5,41.3,30.02,ENE,76,2.0,4.0,92,0.00,,,0.03,WUHU216DAVISVP2,2013-03-18 18:45:00,
2013-03-18 14:50:00,43.5,41.3,30.02,ENE,78,0.0,4.0,92,0.00,,,0.03,WUHU216DAVISVP2,2013-03-18 18:50:00,
2013-03-18 14:55:00,43.5,41.3,30.02,ENE,78,0.0,4.0,92,0.00,,,0.03,WUHU216DAVISVP2,2013-03-18 18:55:00,
2013-03-18 15:00:00,43.5,41.3,30.01,ENE,78,0.0,4.0,92,0.00,,,0.03,WUHU216DAVISVP2,2013-03-18 19:00:00,
2013-03-18 15:05:00,43.9,41.7,30.01,ENE,78,0.0,1.0,92,0.00,,,0.03,WUHU216DAVISVP2,2013-03-18 19:05:00,
2013-03-18 15:10:00,43.6,41.4,30.01,ENE,75,0.0,4.0,92,0.00,,,0.03,WUHU216DAVISVP2,2013-03-18 19:10:00,
2013-03-18 15:15:00,43.6,41.4,30.00,ENE,76,0.0,4.0,92,0.00,,,0.03,WUHU216DAVISVP2,2013-03-18 19:15:00,
2013-03-18 15:20:00,43.9,41.7,30.00,ENE,76,0.0,2.0,92,0.00,,,0.03,WUHU216DAVISVP2,2013-03-18 19:20:00,
2013-03-18 15:25:00,43.6,41.4,30.00,ENE,76,2.0,4.0,92,0.00,,,0.03,WUHU216DAVISVP2,2013-03-18 19:25:00,
2013-03-18 15:30:00,43.6,41.4,30.00,ENE,75,0.0,4.0,92,0.00,,,0.03,WUHU216DAVISVP2,2013-03-18 19:30:00,
2013-03-18 15:35:00,43.6,41.4,30.00,ENE,75,0.0,4.0,92,0.00,,,0.03,WUHU216DAVISVP2,2013-03-18 19:35:00,
2013-03-18 15:40:00,43.8,41.6,30.00,ENE,75,0.0,2.0,92,0.00,,,0.03,WUHU216DAVISVP2,2013-03-18 19:40:00,
2013-03-18 15:45:00,43.8,41.6,29.99,ENE,75,0.0,4.0,92,0.00,,,0.03,WUHU216DAVISVP2,2013-03-18 19:45:00,
2013-03-18 15:50:00,44.1,41.9,29.99,ENE,73,0.0,4.0,92,0.00,,,0.03,WUHU216DAVISVP2,2013-03-18 19:50:00,
2013-03-18 15:55:00,43.9,41.7,29.99,ENE,75,0.0,4.0,92,0.00,,,0.03,WUHU216DAVISVP2,2013-03-18 19:55:00,
2013-03-18 16:00:00,44.1,41.9,29.99,ENE,73,0.0,2.0,92,0.00,,,0.03,WUHU216DAVISVP2,2013-03-18 20:00:00,
2013-03-18 16:05:00,43.9,41.7,29.99,ENE,73,0.0,2.0,92,0.00,,,0.03,WUHU216DAVISVP2,2013-03-18 20:05:00,
2013-03-18 16:10:00,43.8,41.6,29.99,ENE,73,0.0,2.0,92,0.00,,,0.03,WUHU216DAVISVP2,2013-03-18 20:10:00,
2013-03-18 16:15:00,43.8,41.6,29.99,ENE,73,0.0,0.0,92,0.00,,,0.03,WUHU216DAVISVP2,2013-03-18 20:15:00,
2013-03-18 16:20:00,44.1,41.9,29.99,ENE,73,0.0,0.0,92,0.00,,,0.03,WUHU216DAVISVP2,2013-03-18 20:20:00,
2013-03-18 16:25:00,44.1,41.9,29.99,ENE,73,0.0,0.0,92,0.00,,,0.03,WUHU216DAVISVP2,2013-03-18 20:25:00,
2013-03-18 16:30:00,44.1,41.9,29.99,ENE,73,0.0,0.0,92,0.00,,,0.03,WUHU216DAVISVP2,2013-03-18 20:30:00,
2013-03-18 16:36:00,44.1,41.9,29.99,ENE,73,0.0,0.0,92,0.00,,,0.03,WUHU216DAVISVP2,2013-03-18 20:36:00,
2013-03-18 16:41:00,44.1,41.9,29.99,ENE,73,0.0,1.0,92,0.00,,,0.03,WUHU216DAVISVP2,2013-03-18 20:41:00,
2013-03-18 16:46:00,44.1,41.9,29.97,ENE,73,0.0,1.0,92,0.00,,,0.03,WUHU216DAVISVP2,2013-03-18 20:46:00,
2013-03-18 16:51:00,44.1,41.9,29.97,ENE,73,0.0,1.0,92,0.00,,,0.03,WUHU216DAVISVP2,2013-03-18 20:51:00,
2013-03-18 16:56:00,44.1,41.9,29.97,ENE,73,0.0,1.0,92,0.00,,,0.03,WUHU216DAVISVP2,2013-03-18 20:56:00,
2013-03-18 17:01:00,44.3,42.1,29.98,ENE,73,0.0,0.0,92,0.00,,,0.03,WUHU216DAVISVP2,2013-03-18 21:01:00,
2013-03-18 17:06:00,44.2,42.0,29.98,ENE,73,0.0,2.0,92,0.00,,,0.03,WUHU216DAVISVP2,2013-03-18 21:06:00,
2013-03-18 17:11:00,44.2,42.0,29.98,ENE,73,0.0,2.0,92,0.00,,,0.03,WUHU216DAVISVP2,2013-03-18 21:11:00,
2013-03-18 17:16:00,44.2,42.0,29.98,ENE,73,0.0,1.0,92,0.00,,,0.03,WUHU216DAVISVP2,2013-03-18 21:16:00,
2013-03-18 17:21:00,44.2,42.0,29.98,ENE,73,0.0,1.0,92,0.00,,,0.03,WUHU216DAVISVP2,2013-03-18 21:21:00,
2013-03-18 17:26:00,44.2,42.0,29.98,ENE,73,0.0,1.0,92,0.00,,,0.03,WUHU216DAVISVP2,2013-03-18 21:26:00,
2013-03-18 17:31:00,44.3,42.1,29.97,ENE,73,0.0,2.0,92,0.00,,,0.03,WUHU216DAVISVP2,2013-03-18 21:31:00,
2013-03-18 17:36:00,44.3,42.1,29.97,ENE,62,1.0,2.0,92,0.00,,,0.03,WUHU216DAVISVP2,2013-03-18 21:36:00,
2013-03-18 17:41:00,44.3,42.1,29.97,ENE,62,0.0,2.0,92,0.00,,,0.03,WUHU216DAVISVP2,2013-03-18 21:41:00,
2013-03-18 17:46:00,44.3,42.1,29.97,ENE,62,0.0,1.0,92,0.00,,,0.03,WUHU216DAVISVP2,2013-03-18 21:46:00,
2013-03-18 17:52:00,44.5,42.3,29.97,ENE,62,0.0,4.0,92,0.00,,,0.03,WUHU216DAVISVP2,2013-03-18 21:52:00,
2013-03-18 17:57:00,44.3,42.1,29.97,ENE,62,0.0,4.0,92,0.00,,,0.03,WUHU216DAVISVP2,2013-03-18 21:57:00,
2013-03-18 18:02:00,44.5,42.3,29.96,ENE,62,0.0,1.0,92,0.00,,,0.03,WUHU216DAVISVP2,2013-03-18 22:02:00,
2013-03-18 18:07:00,44.6,42.4,29.96,ENE,62,0.0,1.0,92,0.00,,,0.03,WUHU216DAVISVP2,2013-03-18 22:07:00,
2013-03-18 18:12:00,44.5,42.3,29.96,ENE,62,0.0,1.0,92,0.00,,,0.03,WUHU216DAVISVP2,2013-03-18 22:12:00,
2013-03-18 18:17:00,44.5,42.3,29.97,ENE,62,0.0,2.0,92,0.00,,,0.03,WUHU216DAVISVP2,2013-03-18 22:17:00,
2013-03-18 18:22:00,44.5,42.3,29.97,ENE,62,0.0,2.0,92,0.00,,,0.03,WUHU216DAVISVP2,2013-03-18 22:22:00,
2013-03-18 18:27:00,44.3,42.1,29.97,ENE,62,0.0,2.0,92,0.00,,,0.03,WUHU216DAVISVP2,2013-03-18 22:27:00,
2013-03-18 18:32:00,44.5,42.3,29.98,ENE,61,0.0,2.0,92,0.00,,,0.03,WUHU216DAVISVP2,2013-03-18 22:32:00,
2013-03-18 18:37:00,44.3,42.1,29.98,ENE,61,0.0,2.0,92,0.00,,,0.03,WUHU216DAVISVP2,2013-03-18 22:37:00,
2013-03-18 18:42:00,44.6,42.4,29.98,ENE,61,0.0,0.0,92,0.00,,,0.03,WUHU216DAVISVP2,2013-03-18 22:42:00,
2013-03-18 18:47:00,44.5,42.3,29.97,ENE,61,0.0,0.0,92,0.00,,,0.03,WUHU216DAVISVP2,2013-03-18 22:47:00,
2013-03-18 18:52:00,44.6,42.4,29.97,ENE,61,0.0,1.0,92,0.00,,,0.03,WUHU216DAVISVP2,2013-03-18 22:52:00,
2013-03-18 18:57:00,44.8,42.6,29.97,ENE,61,0.0,1.0,92,0.00,,,0.03,WUHU216DAVISVP2,2013-03-18 22:57:00,
2013-03-18 19:02:00,44.8,42.6,29.96,ENE,61,0.0,1.0,92,0.00,,,0.03,WUHU216DAVISVP2,2013-03-18 23:02:00,
2013-03-18 19:07:00,44.8,42.6,29.96,ENE,61,0.0,2.0,92,0.00,,,0.03,WUHU216DAVISVP2,2013-03-18 23:07:00,
2013-03-18 19:12:00,44.8,42.6,29.96,ENE,61,0.0,2.0,92,0.00,,,0.03,WUHU216DAVISVP2,2013-03-18 23:12:00,
2013-03-18 19:17:00,44.5,42.3,29.95,ENE,61,0.0,1.0,92,0.00,,,0.03,WUHU216DAVISVP2,2013-03-18 23:17:00,
2013-03-18 19:22:00,44.5,42.3,29.95,ENE,61,0.0,0.0,92,0.00,,,0.03,WUHU216DAVISVP2,2013-03-18 23:22:00,
2013-03-18 19:27:00,44.6,42.4,29.95,ENE,58,0.0,2.0,92,0.00,,,0.03,WUHU216DAVISVP2,2013-03-18 23:27:00,
2013-03-18 19:32:00,44.6,42.4,29.97,ENE,58,0.0,2.0,92,0.00,,,0.03,WUHU216DAVISVP2,2013-03-18 23:32:00,
2013-03-18 19:37:00,44.6,42.4,29.97,ENE,58,0.0,1.0,92,0.00,,,0.03,WUHU216DAVISVP2,2013-03-18 23:37:00,
2013-03-18 19:42:00,44.6,42.4,29.97,ENE,58,0.0,2.0,92,0.00,,,0.03,WUHU216DAVISVP2,2013-03-18 23:42:00,
2013-03-18 19:47:00,44.6,42.4,29.96,ENE,58,0.0,2.0,92,0.00,,,0.03,WUHU216DAVISVP2,2013-03-18 23:47:00,
2013-03-18 19:52:00,44.6,42.4,29.96,ENE,58,0.0,2.0,92,0.00,,,0.03,WUHU216DAVISVP2,2013-03-18 23:52:00,
2013-03-18 19:57:00,44.3,42.1,29.96,North,0,4.0,4.0,92,0.00,,,0.03,WUHU216DAVISVP2,2013-03-18 23:57:00,
2013-03-18 20:02:00,44.6,42.7,29.94,NNE,16,1.0,4.0,93,0.00,,,0.03,WUHU216DAVISVP2,2013-03-19 00:02:00,
2013-03-18 20:07:00,44.6,42.7,29.94,North,11,0.0,4.0,93,0.00,,,0.03,WUHU216DAVISVP2,2013-03-19 00:07:00,
2013-03-18 20:12:00,44.6,42.7,29.94,North,11,0.0,2.0,93,0.00,,,0.03,WUHU216DAVISVP2,2013-03-19 00:12:00,
2013-03-18 20:17:00,44.6,42.7,29.94,North,11,0.0,1.0,93,0.00,,,0.03,WUHU216DAVISVP2,2013-03-19 00:17:00,
2013-03-18 20:22:00,44.6,42.7,29.94,NNE,13,0.0,2.0,93,0.00,,,0.03,WUHU216DAVISVP2,2013-03-19 00:22:00,
2013-03-18 20:27:00,44.6,42.7,29.94,NNE,13,0.0,2.0,93,0.00,,,0.03,WUHU216DAVISVP2,2013-03-19 00:27:00,
2013-03-18 20:32:00,44.8,42.9,29.94,North,11,0.0,2.0,93,0.00,,,0.03,WUHU216DAVISVP2,2013-03-19 00:32:00,
2013-03-18 20:37:00,44.6,42.7,29.94,North,8,2.0,2.0,93,0.01,,,0.04,WUHU216DAVISVP2,2013-03-19 00:37:00,
2013-03-18 20:42:00,44.3,42.4,29.94,North,354,0.0,4.0,93,0.01,,,0.04,WUHU216DAVISVP2,2013-03-19 00:42:00,
2013-03-18 20:47:00,44.3,42.4,29.96,North,353,0.0,4.0,93,0.01,,,0.04,WUHU216DAVISVP2,2013-03-19 00:47:00,
2013-03-18 20:52:00,44.2,42.3,29.96,North,353,0.0,4.0,93,0.01,,,0.04,WUHU216DAVISVP2,2013-03-19 00:52:00,
2013-03-18 20:57:00,44.3,42.4,29.96,NW,315,2.0,6.0,93,0.01,,,0.04,WUHU216DAVISVP2,2013-03-19 00:57:00,
2013-03-18 21:02:00,44.2,42.3,29.98,North,349,0.0,8.0,93,0.01,,,0.04,WUHU216DAVISVP2,2013-03-19 01:02:00,
2013-03-18 21:08:00,44.2,42.0,29.98,SSW,208,0.0,8.0,92,0.01,,,0.04,WUHU216DAVISVP2,2013-03-19 01:08:00,
2013-03-18 21:13:00,44.1,42.2,29.98,NNW,346,1.0,7.0,93,0.02,,,0.05,WUHU216DAVISVP2,2013-03-19 01:13:00,
2013-03-18 21:18:00,44.2,42.0,30.00,WSW,241,0.0,8.0,92,0.03,,,0.06,WUHU216DAVISVP2,2013-03-19 01:18:00,
2013-03-18 21:23:00,43.9,41.7,30.00,North,0,0.0,8.0,92,0.04,,,0.07,WUHU216DAVISVP2,2013-03-19 01:23:00,
2013-03-18 21:28:00,44.2,42.3,30.00,North,0,0.0,2.0,93,0.05,,,0.08,WUHU216DAVISVP2,2013-03-19 01:28:00,
2013-03-18 21:33:00,43.9,42.0,29.95,North,0,0.0,0.0,93,0.05,,,0.08,WUHU216DAVISVP2,2013-03-19 01:33:00,
2013-03-18 21:38:00,43.9,42.0,29.95,North,0,0.0,0.0,93,0.06,,,0.10,WUHU216DAVISVP2,2013-03-19 01:38:00,
2013-03-18 21:43:00,43.9,42.0,29.95,North,0,0.0,0.0,93,0.08,,,0.12,WUHU216DAVISVP2,2013-03-19 01:43:00,
2013-03-18 21:48:00,44.2,42.3,29.94,North,0,0.0,2.0,93,0.10,,,0.14,WUHU216DAVISVP2,2013-03-19 01:48:00,
2013-03-18 21:53:00,43.8,41.9,29.94,North,0,0.0,2.0,93,0.11,,,0.15,WUHU216DAVISVP2,2013-03-19 01:53:00,
2013-03-18 21:58:00,43.9,42.0,29.94,North,0,0.0,0.0,93,0.12,,,0.16,WUHU216DAVISVP2,2013-03-19 01:58:00,
2013-03-18 22:03:00,43.8,41.9,29.94,North,0,0.0,0.0,93,0.14,,,0.18,WUHU216DAVISVP2,2013-03-19 02:03:00,
2013-03-18 22:08:00,43.8,41.9,29.94,North,0,0.0,0.0,93,0.15,,,0.19,WUHU216DAVISVP2,2013-03-19 02:08:00,
2013-03-18 22:13:00,44.1,42.2,29.94,North,0,0.0,0.0,93,0.14,,,0.19,WUHU216DAVISVP2,2013-03-19 02:13:00,
2013-03-18 22:18:00,43.8,41.9,29.93,North,0,0.0,1.0,93,0.13,,,0.19,WUHU216DAVISVP2,2013-03-19 02:18:00,
2013-03-18 22:23:00,43.8,41.9,29.93,North,0,0.0,1.0,93,0.12,,,0.19,WUHU216DAVISVP2,2013-03-19 02:23:00,
2013-03-18 22:28:00,43.8,41.9,29.93,North,0,0.0,0.0,93,0.11,,,0.19,WUHU216DAVISVP2,2013-03-19 02:28:00,
2013-03-18 22:33:00,43.6,41.7,29.93,North,0,0.0,1.0,93,0.09,,,0.19,WUHU216DAVISVP2,2013-03-19 02:33:00,
2013-03-18 22:38:00,43.6,41.7,29.93,North,0,0.0,1.0,93,0.09,,,0.19,WUHU216DAVISVP2,2013-03-19 02:38:00,
2013-03-18 22:43:00,43.6,41.7,29.93,North,0,0.0,0.0,93,0.07,,,0.19,WUHU216DAVISVP2,2013-03-19 02:43:00,
2013-03-18 22:48:00,43.6,41.7,29.92,North,0,0.0,0.0,93,0.05,,,0.19,WUHU216DAVISVP2,2013-03-19 02:48:00,
2013-03-18 22:53:00,43.6,41.7,29.92,North,0,0.0,0.0,93,0.04,,,0.19,WUHU216DAVISVP2,2013-03-19 02:53:00,
2013-03-18 22:58:00,43.6,41.7,29.92,North,0,0.0,0.0,93,0.03,,,0.19,WUHU216DAVISVP2,2013-03-19 02:58:00,
2013-03-18 23:03:00,43.6,41.7,29.90,North,0,0.0,0.0,93,0.01,,,0.19,WUHU216DAVISVP2,2013-03-19 03:03:00,
2013-03-18 23:08:00,43.6,41.7,29.90,North,0,0.0,0.0,93,0.00,,,0.19,WUHU216DAVISVP2,2013-03-19 03:08:00,
2013-03-18 23:13:00,43.6,41.7,29.90,North,0,0.0,0.0,93,0.00,,,0.19,WUHU216DAVISVP2,2013-03-19 03:13:00,
2013-03-18 23:18:00,43.8,41.9,29.88,North,0,0.0,0.0,93,0.01,,,0.20,WUHU216DAVISVP2,2013-03-19 03:18:00,
2013-03-18 23:23:00,43.8,41.9,29.88,North,0,0.0,0.0,93,0.01,,,0.20,WUHU216DAVISVP2,2013-03-19 03:23:00,
2013-03-18 23:28:00,43.8,41.9,29.88,North,0,0.0,0.0,93,0.01,,,0.20,WUHU216DAVISVP2,2013-03-19 03:28:00,
2013-03-18 23:33:00,43.8,41.9,29.85,North,0,0.0,0.0,93,0.01,,,0.20,WUHU216DAVISVP2,2013-03-19 03:33:00,
2013-03-18 23:38:00,43.8,41.9,29.85,SSE,160,0.0,6.0,93,0.01,,,0.20,WUHU216DAVISVP2,2013-03-19 03:38:00,
2013-03-18 23:43:00,43.6,41.7,29.85,SW,227,0.0,6.0,93,0.01,,,0.20,WUHU216DAVISVP2,2013-03-19 03:43:00,
2013-03-18 23:48:00,43.6,41.7,29.83,ESE,114,0.0,6.0,93,0.01,,,0.20,WUHU216DAVISVP2,2013-03-19 03:48:00,
2013-03-18 23:53:00,43.6,41.7,29.83,SE,128,0.0,2.0,93,0.01,,,0.20,WUHU216DAVISVP2,2013-03-19 03:53:00,
2013-03-18 23:58:00,43.9,42.0,29.83,SE,128,0.0,2.0,93,0.01,,,0.20,WUHU216DAVISVP2,2013-03-19 03:58:00,